createdAt,value
2023-06-10T00:00:23.335Z,75.44
2023-06-10T00:02:50.030Z,75.68
2023-06-10T00:05:16.428Z,75.73
2023-06-10T00:07:42.853Z,75.66
2023-06-10T00:10:09.290Z,75.69
2023-06-10T00:12:35.697Z,75.83
2023-06-10T00:15:02.152Z,75.94
2023-06-10T00:17:28.694Z,75.75
2023-06-10T00:19:55.105Z,75.80
2023-06-10T00:22:21.516Z,75.70
2023-06-10T00:24:47.978Z,75.75
2023-06-10T00:27:14.522Z,75.82
2023-06-10T00:29:41.057Z,76.05
2023-06-10T00:32:07.640Z,76.12
2023-06-10T00:34:34.017Z,76.55
2023-06-10T00:37:00.445Z,76.50
2023-06-10T00:39:26.880Z,76.59
2023-06-10T00:41:53.422Z,76.59
2023-06-10T00:44:19.960Z,76.70
2023-06-10T00:46:46.382Z,76.77
2023-06-10T00:49:12.832Z,76.76
2023-06-10T00:51:39.244Z,76.82
2023-06-10T00:54:05.700Z,76.93
2023-06-10T00:56:32.214Z,77.08
2023-06-10T00:58:58.768Z,77.09
2023-06-10T01:01:25.251Z,76.92
2023-06-10T01:03:51.616Z,77.04
2023-06-10T01:06:18.047Z,77.19
2023-06-10T01:08:44.486Z,77.18
2023-06-10T01:11:11.035Z,77.03
2023-06-10T01:13:37.450Z,76.88
2023-06-10T01:16:03.890Z,76.80
2023-06-10T01:18:30.289Z,76.98
2023-06-10T01:20:56.749Z,77.18
2023-06-10T01:23:23.545Z,77.25
2023-06-10T01:25:50.035Z,77.01
2023-06-10T01:28:16.576Z,77.34
2023-06-10T01:30:43.111Z,77.47
2023-06-10T01:33:09.838Z,77.43
2023-06-10T01:35:36.166Z,77.62
2023-06-10T01:38:02.733Z,77.74
2023-06-10T01:40:29.266Z,77.68
2023-06-10T01:42:55.792Z,77.50
2023-06-10T01:45:22.324Z,77.64
2023-06-10T01:47:48.922Z,78.24
2023-06-10T01:50:15.385Z,78.30
2023-06-10T01:52:41.841Z,78.45
2023-06-10T01:55:08.559Z,78.67
2023-06-10T01:57:34.785Z,78.72
2023-06-10T02:00:01.223Z,78.92
2023-06-10T02:02:27.792Z,78.95
2023-06-10T02:04:54.311Z,79.32
2023-06-10T02:07:20.842Z,79.28
2023-06-10T02:09:47.377Z,79.41
2023-06-10T02:12:15.809Z,79.45
2023-06-10T02:14:40.246Z,79.45
2023-06-10T02:17:06.773Z,79.67
2023-06-10T02:19:33.205Z,79.71
2023-06-10T02:21:59.628Z,79.78
2023-06-10T02:24:26.176Z,79.85
2023-06-10T02:26:52.654Z,80.03
2023-06-10T02:29:19.262Z,79.99
2023-06-10T02:31:45.811Z,80.09
2023-06-10T02:34:12.279Z,80.16
2023-06-10T02:36:38.625Z,80.50
2023-06-10T02:39:05.187Z,80.80
2023-06-10T02:41:31.701Z,81.03
2023-06-10T02:43:58.138Z,81.13
2023-06-10T02:46:24.816Z,81.19
2023-06-10T02:48:51.108Z,81.36
2023-06-10T02:51:17.510Z,81.24
2023-06-10T02:53:43.988Z,81.29
2023-06-10T02:56:10.529Z,81.44
2023-06-10T02:58:36.983Z,81.72
2023-06-10T03:01:03.499Z,81.59
2023-06-10T03:03:29.932Z,81.60
2023-06-10T03:05:56.358Z,81.40
2023-06-10T03:08:22.921Z,81.43
2023-06-10T03:10:49.345Z,81.44
2023-06-10T03:13:15.800Z,81.46
2023-06-10T03:15:42.370Z,81.61
2023-06-10T03:18:08.873Z,81.78
2023-06-10T03:20:35.319Z,81.78
2023-06-10T03:23:01.795Z,81.91
2023-06-10T03:25:28.343Z,82.16
2023-06-10T03:27:54.876Z,82.48
2023-06-10T03:30:21.408Z,82.72
2023-06-10T03:32:47.870Z,83.01
2023-06-10T03:35:14.259Z,83.23
2023-06-10T03:37:40.808Z,83.27
2023-06-10T03:40:07.274Z,83.24
2023-06-10T03:42:33.677Z,83.14
2023-06-10T03:45:00.172Z,82.79
2023-06-10T03:47:26.614Z,82.37
2023-06-10T03:49:53.064Z,82.06
2023-06-10T03:52:19.573Z,81.81
2023-06-10T03:54:46.042Z,81.65
2023-06-10T03:57:12.465Z,81.45
2023-06-10T03:59:39.013Z,81.25
2023-06-10T04:02:05.592Z,81.08
2023-06-10T04:04:31.966Z,80.94
2023-06-10T04:06:58.523Z,80.84
2023-06-10T04:09:24.948Z,80.77
2023-06-10T04:11:51.355Z,80.79
2023-06-10T04:14:17.914Z,80.76
2023-06-10T04:16:44.462Z,80.91
2023-06-10T04:19:10.882Z,81.09
2023-06-10T04:21:37.341Z,81.08
2023-06-10T04:24:03.928Z,81.02
2023-06-10T04:26:30.391Z,80.61
2023-06-10T04:28:56.914Z,80.34
2023-06-10T04:31:23.392Z,80.33
2023-06-10T04:33:49.796Z,80.12
2023-06-10T04:36:16.317Z,79.80
2023-06-10T04:38:42.864Z,81.24
2023-06-10T04:41:09.287Z,81.98
2023-06-10T04:43:35.761Z,82.45
2023-06-10T04:46:02.276Z,83.25
2023-06-10T04:48:28.800Z,84.95
2023-06-10T04:50:55.259Z,85.82
2023-06-10T04:53:21.753Z,86.97
2023-06-10T04:55:48.191Z,87.32
2023-06-10T04:58:14.639Z,86.85
2023-06-10T05:00:41.170Z,86.71
2023-06-10T05:03:07.840Z,87.00
2023-06-10T05:05:34.123Z,87.27
2023-06-10T05:08:00.726Z,87.72
2023-06-10T05:10:27.212Z,87.88
2023-06-10T05:12:53.603Z,87.46
2023-06-10T05:15:20.056Z,87.11
2023-06-10T05:17:46.510Z,87.71
2023-06-10T05:20:13.137Z,88.04
2023-06-10T05:22:39.623Z,87.87
2023-06-10T05:25:06.175Z,87.36
2023-06-10T05:27:32.551Z,87.57
2023-06-10T05:29:59.266Z,88.44
2023-06-10T05:32:25.680Z,88.87
2023-06-10T05:34:52.256Z,89.81
2023-06-10T05:37:18.705Z,90.39
2023-06-10T05:39:45.275Z,90.30
2023-06-10T05:42:11.783Z,89.93
2023-06-10T05:44:38.166Z,90.00
2023-06-10T05:47:04.614Z,90.18
2023-06-10T05:49:31.311Z,90.49
2023-06-10T05:51:57.744Z,90.50
2023-06-10T05:54:24.251Z,90.28
2023-06-10T05:56:50.634Z,90.75
2023-06-10T05:59:18.622Z,89.56
2023-06-10T06:01:45.207Z,88.71
2023-06-10T06:04:11.738Z,89.41
2023-06-10T06:06:38.365Z,88.74
2023-06-10T06:09:04.909Z,88.83
2023-06-10T06:11:31.412Z,90.50
2023-06-10T06:13:57.886Z,89.64
2023-06-10T06:16:24.622Z,88.89
2023-06-10T06:18:51.035Z,88.85
2023-06-10T06:21:17.478Z,89.16
2023-06-10T06:23:43.971Z,90.07
2023-06-10T06:26:10.618Z,90.77
2023-06-10T06:28:37.148Z,91.53
2023-06-10T06:31:03.610Z,89.77
2023-06-10T06:33:30.121Z,89.25
2023-06-10T06:35:56.868Z,89.41
2023-06-10T06:38:23.291Z,90.24
2023-06-10T06:40:49.742Z,89.81
2023-06-10T06:43:16.287Z,87.95
2023-06-10T06:45:43.836Z,88.86
2023-06-10T06:48:10.374Z,88.18
2023-06-10T06:50:36.806Z,87.92
2023-06-10T06:53:03.325Z,87.11
2023-06-10T06:55:29.657Z,87.62
2023-06-10T06:57:56.190Z,87.90
2023-06-10T07:00:22.860Z,86.36
2023-06-10T07:02:49.444Z,86.10
2023-06-10T07:05:16.010Z,81.91
2023-06-10T07:07:42.363Z,79.47
2023-06-10T07:10:08.882Z,80.59
2023-06-10T07:12:35.611Z,80.48
2023-06-10T07:15:02.040Z,80.86
2023-06-10T07:17:28.695Z,80.52
2023-06-10T07:19:55.041Z,78.99
2023-06-10T07:22:21.649Z,78.83
2023-06-10T07:24:48.244Z,79.20
2023-06-10T07:27:14.717Z,77.68
2023-06-10T07:29:41.165Z,78.28
2023-06-10T07:32:07.888Z,77.17
2023-06-10T07:34:34.439Z,77.79
2023-06-10T07:37:00.884Z,76.70
2023-06-10T07:39:27.343Z,73.00
2023-06-10T07:41:53.889Z,71.62
2023-06-10T07:44:20.320Z,71.39
2023-06-10T07:46:46.849Z,70.96
2023-06-10T07:49:13.300Z,69.34
2023-06-10T07:51:39.800Z,68.50
2023-06-10T07:54:06.314Z,66.53
2023-06-10T07:56:32.726Z,66.48
2023-06-10T07:58:59.130Z,65.24
2023-06-10T08:01:27.931Z,64.20
2023-06-10T08:03:54.500Z,62.58
2023-06-10T08:06:21.032Z,59.94
2023-06-10T08:08:47.448Z,59.32
2023-06-10T08:11:13.906Z,59.42
2023-06-10T08:13:40.442Z,58.05
2023-06-10T08:16:06.997Z,57.87
2023-06-10T08:18:33.496Z,57.99
2023-06-10T08:21:00.046Z,56.78
2023-06-10T08:23:26.582Z,55.03
2023-06-10T08:25:55.101Z,55.41
2023-06-10T08:28:21.579Z,55.38
2023-06-10T08:30:48.075Z,54.51
2023-06-10T08:33:14.792Z,55.41
2023-06-10T08:35:41.185Z,54.45
2023-06-10T08:38:07.635Z,54.45
2023-06-10T08:40:34.055Z,52.87
2023-06-10T08:43:00.799Z,52.94
2023-06-10T08:45:27.266Z,52.24
2023-06-10T08:47:53.792Z,51.41
2023-06-10T08:50:20.213Z,51.27
2023-06-10T08:52:47.740Z,51.15
2023-06-10T08:55:14.210Z,51.75
2023-06-10T08:57:40.639Z,50.38
2023-06-10T09:00:07.579Z,49.43
2023-06-10T09:02:33.909Z,50.46
2023-06-10T09:05:00.455Z,50.27
2023-06-10T09:07:27.341Z,49.44
2023-06-10T09:09:53.788Z,49.13
2023-06-10T09:12:20.245Z,49.04
2023-06-10T09:14:49.066Z,49.58
2023-06-10T09:17:15.503Z,48.61
2023-06-10T09:19:42.121Z,48.49
2023-06-10T09:22:08.693Z,48.63
2023-06-10T09:24:36.329Z,49.26
2023-06-10T09:27:02.803Z,48.48
2023-06-10T09:29:29.289Z,47.06
2023-06-10T09:31:55.805Z,46.60
2023-06-10T09:34:22.391Z,45.61
2023-06-10T09:36:48.888Z,45.48
2023-06-10T09:39:16.533Z,45.68
2023-06-10T09:41:41.900Z,46.01
2023-06-10T09:44:10.108Z,45.34
2023-06-10T09:46:35.077Z,44.99
2023-06-10T09:49:01.559Z,45.23
2023-06-10T09:51:28.457Z,45.39
2023-06-10T09:53:55.155Z,44.89
2023-06-10T09:56:21.687Z,44.79
2023-06-10T09:58:48.165Z,46.01
2023-06-10T10:01:14.689Z,46.12
2023-06-10T10:03:41.252Z,45.97
2023-06-10T10:06:07.772Z,46.70
2023-06-10T10:08:34.227Z,46.39
2023-06-10T10:11:00.701Z,46.68
2023-06-10T10:13:27.125Z,44.69
2023-06-10T10:15:53.620Z,44.67
2023-06-10T10:18:20.150Z,44.40
2023-06-10T10:20:46.507Z,44.42
2023-06-10T10:23:13.004Z,44.92
2023-06-10T10:25:39.566Z,44.69
2023-06-10T10:28:06.238Z,44.74
2023-06-10T10:30:32.661Z,44.51
2023-06-10T10:32:59.272Z,45.04
2023-06-10T10:35:25.527Z,44.90
2023-06-10T10:37:53.107Z,44.90
2023-06-10T10:40:19.769Z,44.25
2023-06-10T10:42:46.174Z,43.51
2023-06-10T10:45:13.038Z,43.69
2023-06-10T10:47:39.258Z,43.96
2023-06-10T10:50:06.049Z,44.03
2023-06-10T10:52:32.515Z,44.15
2023-06-10T10:54:58.957Z,43.75
2023-06-10T10:57:25.501Z,43.49
2023-06-10T10:59:51.890Z,43.78
2023-06-10T11:02:18.438Z,44.08
2023-06-10T11:04:44.933Z,44.07
2023-06-10T11:07:11.324Z,43.41
2023-06-10T11:09:38.826Z,43.53
2023-06-10T11:12:05.312Z,43.16
2023-06-10T11:14:31.872Z,43.41
2023-06-10T11:16:58.345Z,42.91
2023-06-10T11:19:24.750Z,43.17
2023-06-10T11:21:51.331Z,43.29
2023-06-10T11:24:17.919Z,42.85
2023-06-10T11:26:44.318Z,42.46
2023-06-10T11:29:10.920Z,42.00
2023-06-10T11:31:37.430Z,41.87
2023-06-10T11:34:03.709Z,42.36
2023-06-10T11:36:30.277Z,42.70
2023-06-10T11:38:56.782Z,41.06
2023-06-10T11:41:23.190Z,41.56
2023-06-10T11:43:49.678Z,41.03
2023-06-10T11:46:16.175Z,39.51
2023-06-10T11:48:42.729Z,38.85
2023-06-10T11:51:09.283Z,40.11
2023-06-10T11:53:35.808Z,40.66
2023-06-10T11:56:02.241Z,41.17
2023-06-10T11:58:28.728Z,41.69
2023-06-10T12:00:55.209Z,41.37
2023-06-10T12:03:21.837Z,41.18
2023-06-10T12:05:48.213Z,41.09
2023-06-10T12:08:14.624Z,40.49
2023-06-10T12:10:41.071Z,40.98
2023-06-10T12:13:07.578Z,40.65
2023-06-10T12:15:34.004Z,40.35
2023-06-10T12:18:00.754Z,40.17
2023-06-10T12:20:27.082Z,40.10
2023-06-10T12:22:53.610Z,39.94
2023-06-10T12:25:20.061Z,39.57
2023-06-10T12:27:46.486Z,39.73
2023-06-10T12:30:13.006Z,39.72
2023-06-10T12:32:39.521Z,39.76
2023-06-10T12:35:06.028Z,39.59
2023-06-10T12:37:32.447Z,39.21
2023-06-10T12:39:58.943Z,39.51
2023-06-10T12:42:25.485Z,39.87
2023-06-10T12:44:51.969Z,39.85
2023-06-10T12:47:18.419Z,39.51
2023-06-10T12:49:44.871Z,39.92
2023-06-10T12:52:11.349Z,39.88
2023-06-10T12:54:38.212Z,39.92
2023-06-10T12:57:04.637Z,39.71
2023-06-10T12:59:31.111Z,39.65
2023-06-10T13:01:57.565Z,39.58
2023-06-10T13:04:24.136Z,39.80
2023-06-10T13:06:50.638Z,39.83
2023-06-10T13:09:17.080Z,40.01
2023-06-10T13:11:43.762Z,40.42
2023-06-10T13:14:10.347Z,40.41
2023-06-10T13:16:36.931Z,40.26
2023-06-10T13:19:03.332Z,39.83
2023-06-10T13:21:29.765Z,40.48
2023-06-10T13:23:56.353Z,40.95
2023-06-10T13:26:22.712Z,41.63
2023-06-10T13:28:49.163Z,42.52
2023-06-10T13:31:16.699Z,43.31
2023-06-10T13:33:43.146Z,43.72
2023-06-10T13:36:09.610Z,44.20
2023-06-10T13:38:36.521Z,44.67
2023-06-10T13:41:04.924Z,45.09
2023-06-10T13:43:29.443Z,45.29
2023-06-10T13:45:55.869Z,45.77
2023-06-10T13:48:22.766Z,45.99
2023-06-10T13:50:49.225Z,46.36
2023-06-10T13:53:15.748Z,45.95
2023-06-10T13:55:42.251Z,46.80
2023-06-10T13:58:09.854Z,47.54
2023-06-10T14:00:36.356Z,48.09
2023-06-10T14:03:02.829Z,46.35
2023-06-10T14:05:32.408Z,47.06
2023-06-10T14:07:58.631Z,47.62
2023-06-10T14:10:25.046Z,48.16
2023-06-10T14:12:51.597Z,47.95
2023-06-10T14:15:18.143Z,48.07
2023-06-10T14:17:44.688Z,48.34
2023-06-10T14:20:11.295Z,48.56
2023-06-10T14:22:37.853Z,48.68
2023-06-10T14:25:04.307Z,49.39
2023-06-10T14:27:30.818Z,49.85
2023-06-10T14:29:57.675Z,49.67
2023-06-10T14:32:24.148Z,49.67
2023-06-10T14:34:50.614Z,49.81
2023-06-10T14:37:17.157Z,50.68
2023-06-10T14:39:45.904Z,50.84
2023-06-10T14:42:12.488Z,50.86
2023-06-10T14:44:40.058Z,50.81
2023-06-10T14:47:06.582Z,50.84
2023-06-10T14:49:33.015Z,51.34
2023-06-10T14:51:59.735Z,51.26
2023-06-10T14:54:26.383Z,50.79
2023-06-10T14:56:52.827Z,51.03
2023-06-10T14:59:19.353Z,50.58
2023-06-10T15:01:46.142Z,50.56
2023-06-10T15:04:12.749Z,50.60
2023-06-10T15:06:39.049Z,50.89
2023-06-10T15:09:05.496Z,51.04
2023-06-10T15:11:31.930Z,50.87
2023-06-10T15:13:58.390Z,50.98
2023-06-10T15:16:25.063Z,51.06
2023-06-10T15:18:51.479Z,50.25
2023-06-10T15:21:17.977Z,50.60
2023-06-10T15:23:44.618Z,50.25
2023-06-10T15:26:11.050Z,50.11
2023-06-10T15:28:37.495Z,49.89
2023-06-10T15:31:04.105Z,50.45
2023-06-10T15:33:30.563Z,50.43
2023-06-10T15:35:57.154Z,49.80
2023-06-10T15:38:23.530Z,50.21
2023-06-10T15:40:50.097Z,50.21
2023-06-10T15:43:16.581Z,50.79
2023-06-10T15:45:43.399Z,51.09
2023-06-10T15:48:09.782Z,50.47
2023-06-10T15:50:36.314Z,51.00
2023-06-10T15:53:02.727Z,51.26
2023-06-10T15:55:29.154Z,51.14
2023-06-10T15:57:55.809Z,51.30
2023-06-10T16:00:24.342Z,51.39
2023-06-10T16:02:51.010Z,51.43
2023-06-10T16:05:17.241Z,51.52
2023-06-10T16:07:44.006Z,51.39
2023-06-10T16:10:10.520Z,51.44
2023-06-10T16:12:37.068Z,51.69
2023-06-10T16:15:03.495Z,52.13
2023-06-10T16:17:30.137Z,51.01
2023-06-10T16:19:56.676Z,50.76
2023-06-10T16:22:23.042Z,51.63
2023-06-10T16:24:49.525Z,52.61
2023-06-10T16:27:16.274Z,52.62
2023-06-10T16:29:42.822Z,52.71
2023-06-10T16:32:09.308Z,53.10
2023-06-10T16:34:35.985Z,53.32
2023-06-10T16:37:02.635Z,53.57
2023-06-10T16:39:29.158Z,52.94
2023-06-10T16:41:55.695Z,52.94
2023-06-10T16:44:22.112Z,52.25
2023-06-10T16:46:48.610Z,52.11
2023-06-10T16:49:15.397Z,52.58
2023-06-10T16:51:41.860Z,52.81
2023-06-10T16:54:08.341Z,52.60
2023-06-10T16:56:34.744Z,52.58
2023-06-10T16:59:01.238Z,52.71
2023-06-10T17:01:27.696Z,52.98
2023-06-10T17:03:54.106Z,53.25
2023-06-10T17:06:20.642Z,53.15
2023-06-10T17:08:47.071Z,53.50
2023-06-10T17:11:13.492Z,53.90
2023-06-10T17:13:41.975Z,54.31
2023-06-10T17:16:09.893Z,54.64
2023-06-10T17:18:36.618Z,55.27
2023-06-10T17:21:03.126Z,55.31
2023-06-10T17:23:29.648Z,55.78
2023-06-10T17:25:56.196Z,55.77
2023-06-10T17:28:22.676Z,56.28
2023-06-10T17:30:49.088Z,56.78
2023-06-10T17:33:15.598Z,56.82
2023-06-10T17:35:42.129Z,57.09
2023-06-10T17:38:09.049Z,56.54
2023-06-10T17:40:36.484Z,56.53
2023-06-10T17:43:02.915Z,56.74
2023-06-10T17:45:29.349Z,56.68
2023-06-10T17:47:55.761Z,56.47
2023-06-10T17:50:22.215Z,56.33
2023-06-10T17:52:48.706Z,57.23
2023-06-10T17:55:15.109Z,57.30
2023-06-10T17:57:41.581Z,57.02
2023-06-10T18:00:08.296Z,57.27
2023-06-10T18:02:34.796Z,57.39
2023-06-10T18:05:01.184Z,57.78
2023-06-10T18:07:27.716Z,58.00
2023-06-10T18:09:54.152Z,58.68
2023-06-10T18:12:20.688Z,58.86
2023-06-10T18:14:47.218Z,59.16
2023-06-10T18:17:13.789Z,59.72
2023-06-10T18:19:40.247Z,59.50
2023-06-10T18:22:06.727Z,60.28
2023-06-10T18:24:33.251Z,60.41
2023-06-10T18:26:59.910Z,61.02
2023-06-10T18:29:26.320Z,61.09
2023-06-10T18:31:52.914Z,61.52
2023-06-10T18:34:19.332Z,62.21
2023-06-10T18:36:46.217Z,62.44
2023-06-10T18:39:12.606Z,62.93
2023-06-10T18:41:39.205Z,63.38
2023-06-10T18:44:05.744Z,63.75
2023-06-10T18:46:32.295Z,63.73
2023-06-10T18:48:58.649Z,63.82
2023-06-10T18:51:25.098Z,64.12
2023-06-10T18:53:51.565Z,64.05
2023-06-10T18:56:18.179Z,64.43
2023-06-10T18:58:44.714Z,64.92
2023-06-10T19:01:11.160Z,65.02
2023-06-10T19:03:37.617Z,65.40
2023-06-10T19:06:04.049Z,65.87
2023-06-10T19:08:30.586Z,65.98
2023-06-10T19:10:57.008Z,66.18
2023-06-10T19:13:23.628Z,66.49
2023-06-10T19:15:49.977Z,66.69
2023-06-10T19:18:17.038Z,66.61
2023-06-10T19:20:43.487Z,66.78
2023-06-10T19:23:09.994Z,67.09
2023-06-10T19:25:36.440Z,67.33
2023-06-10T19:28:02.933Z,67.58
2023-06-10T19:30:29.364Z,67.89
2023-06-10T19:32:55.904Z,68.13
2023-06-10T19:35:22.265Z,68.07
2023-06-10T19:37:49.525Z,68.28
2023-06-10T19:40:15.947Z,68.18
2023-06-10T19:42:42.410Z,68.16
2023-06-10T19:45:09.145Z,67.99
2023-06-10T19:47:35.817Z,67.71
2023-06-10T19:50:02.210Z,67.69
2023-06-10T19:52:28.747Z,67.25
2023-06-10T19:54:55.274Z,66.99
2023-06-10T19:57:21.801Z,66.84
2023-06-10T19:59:48.344Z,66.64
2023-06-10T20:02:14.862Z,66.66
2023-06-10T20:04:41.208Z,66.67
2023-06-10T20:07:07.896Z,66.72
2023-06-10T20:09:34.427Z,66.69
2023-06-10T20:12:02.904Z,66.74
2023-06-10T20:14:27.358Z,66.32
2023-06-10T20:16:53.875Z,66.11
2023-06-10T20:19:20.309Z,66.03
2023-06-10T20:21:46.850Z,66.00
2023-06-10T20:24:13.383Z,66.06
2023-06-10T20:26:39.725Z,66.02
2023-06-10T20:29:06.155Z,66.56
2023-06-10T20:31:32.628Z,66.88
2023-06-10T20:33:59.141Z,67.31
2023-06-10T20:36:27.265Z,67.34
2023-06-10T20:38:53.135Z,68.27
2023-06-10T20:41:19.634Z,68.71
2023-06-10T20:43:46.063Z,68.45
2023-06-10T20:46:12.511Z,69.29
2023-06-10T20:48:39.049Z,68.61
2023-06-10T20:51:05.574Z,68.29
2023-06-10T20:53:31.999Z,68.77
2023-06-10T20:55:58.427Z,69.53
2023-06-10T20:58:24.921Z,69.96
2023-06-10T21:00:51.405Z,70.45
2023-06-10T21:03:18.145Z,71.01
2023-06-10T21:05:44.586Z,71.04
2023-06-10T21:08:11.005Z,71.38
2023-06-10T21:10:37.464Z,71.50
2023-06-10T21:13:03.946Z,71.61
2023-06-10T21:15:30.412Z,71.87
2023-06-10T21:17:56.977Z,71.96
2023-06-10T21:20:23.421Z,71.85
2023-06-10T21:22:49.826Z,71.78
2023-06-10T21:25:16.255Z,71.75
2023-06-10T21:27:42.793Z,71.80
2023-06-10T21:30:09.251Z,71.87
2023-06-10T21:32:35.756Z,71.28
2023-06-10T21:35:02.216Z,71.97
2023-06-10T21:37:29.686Z,71.81
2023-06-10T21:39:56.137Z,71.76
2023-06-10T21:42:22.539Z,71.84
2023-06-10T21:44:49.032Z,71.52
2023-06-10T21:47:15.480Z,72.09
2023-06-10T21:49:41.921Z,72.15
2023-06-10T21:52:08.339Z,72.28
2023-06-10T21:54:34.864Z,72.40
2023-06-10T21:57:01.416Z,72.42
2023-06-10T21:59:28.008Z,72.58
2023-06-10T22:01:54.521Z,72.34
2023-06-10T22:04:21.007Z,72.12
2023-06-10T22:06:47.472Z,71.75
2023-06-10T22:09:14.002Z,71.86
2023-06-10T22:11:40.526Z,71.94
2023-06-10T22:14:07.092Z,72.25
2023-06-10T22:16:33.516Z,72.33
2023-06-10T22:19:00.040Z,72.31
2023-06-10T22:21:26.576Z,72.37
2023-06-10T22:23:53.155Z,72.44
2023-06-10T22:26:19.650Z,72.28
2023-06-10T22:28:46.068Z,72.45
2023-06-10T22:31:12.571Z,72.57
2023-06-10T22:33:38.947Z,72.53
2023-06-10T22:36:05.502Z,72.87
2023-06-10T22:38:32.021Z,72.89
2023-06-10T22:40:58.427Z,72.94
2023-06-10T22:43:24.844Z,72.94
2023-06-10T22:45:51.493Z,72.91
2023-06-10T22:48:18.039Z,72.91
2023-06-10T22:50:44.376Z,72.95
2023-06-10T22:53:10.926Z,72.82
2023-06-10T22:55:37.344Z,72.98
2023-06-10T22:58:03.751Z,73.21
2023-06-10T23:00:30.218Z,73.38
2023-06-10T23:02:56.767Z,73.41
2023-06-10T23:05:23.319Z,73.44
2023-06-10T23:07:49.706Z,73.45
2023-06-10T23:10:16.179Z,73.40
2023-06-10T23:12:42.703Z,73.41
2023-06-10T23:15:09.489Z,73.34
2023-06-10T23:17:35.848Z,73.30
2023-06-10T23:20:02.194Z,73.37
2023-06-10T23:22:29.034Z,73.51
2023-06-10T23:24:55.494Z,73.54
2023-06-10T23:27:22.073Z,73.63
2023-06-10T23:29:58.579Z,73.76
2023-06-10T23:32:15.085Z,73.76
2023-06-10T23:34:41.508Z,73.82
2023-06-10T23:37:08.039Z,74.05
2023-06-10T23:39:34.601Z,74.14
2023-06-10T23:42:01.009Z,74.30
2023-06-10T23:44:27.516Z,74.43
2023-06-10T23:46:53.986Z,74.44
2023-06-10T23:49:20.526Z,74.78
2023-06-10T23:51:46.944Z,74.79
2023-06-10T23:54:13.391Z,74.82
2023-06-10T23:56:39.929Z,74.89
2023-06-10T23:59:06.446Z,75.00
